Lorida, Florida
Current Conditions -  °F | °C
As of 8:15 AM on Thursday 18 Dec 2014 (Local Time) from KOBE Reporting Station
Clear Clear  
Wind Chill: 10°   Ceiling: Unl
Heat Index: 10°   Visibility: 10mi
Dew Point:   Wind: 3mph
Humidity: 87%   Direction: 310°NW
Pressure: 30.17"   Gusts: NA
Location:  27.44°N, 81.25°W
Report Text: KOBE 181315Z AUTO 31003KT 10SM CLR 10/08 A3017 RMK AO2
Loading
Personal Weather Stations






























Interactive Weather Map New forecast layout! Learn more

10-Day Weather Forecast

Advertisements
Track Severe Weather on mobile